• Join FlightAware (Why Join?)
  • Login
  • US Flag GB Flag 
00:36 EDT


 

Airport Tracker/Info


-or-


 

Live Flight TrackerFlight Track Log ✈ SWA1969 ✈ 07-Apr-2013 ✈ KOKC - KMDW

Flight Track Log - Related Links

Times and Time Zones

All times are in EDT time to prevent confusion due to time zone crossing. See the SWA1969 flight status page for this flight to view local times or setup timezone preferences in your user account.

Time Position Orientation Groundspeed Altitude Reporting Facility
EDT Latitude Longitude Course Direction KTS MPH feet Rate Location/Type
08:46 35.3789 -97.5944 62° Northeast 137 158 2,300  Level Fort Worth Center
08:47 35.3497 -97.5817 160° South 181 208 4,100 2,820 Climbing Fort Worth Center
08:48 35.3686 -97.5128 71° East 271 312 7,200 3,480 Climbing Fort Worth Center
08:50 35.4492 -97.3550 58° Northeast 311 358 13,700 3,660 Climbing Kansas City Center
08:51 35.4992 -97.2481 60° Northeast 341 392 17,300 3,300 Climbing Kansas City Center
08:52 35.7171 -96.8656 62° Northeast  Level FlightAware Approximate
08:52 35.5536 -97.1350 59° Northeast 363 418 20,600  Level Kansas City Center
08:53 35.6122 -97.0139 59° Northeast 395 455 23,600 2,700 Climbing Kansas City Center
08:54 35.6744 -96.8858 59° Northeast 427 491 26,100 2,580 Climbing Kansas City Center
08:55 35.7514 -96.7258 59° Northeast 449 517 28,900 2,400 Climbing Kansas City Center
08:56 35.8175 -96.5872 60° Northeast 464 534 31,000 1,860 Climbing Kansas City Center
08:57 35.8850 -96.4472 59° Northeast 474 545 32,800 960 Climbing Kansas City Center
08:58 35.9514 -96.3072 60° Northeast 489 563 33,000 1,020 Climbing Kansas City Center
08:59 36.0200 -96.1619 60° Northeast 490 564 34,900 1,800 Climbing Kansas City Center
09:00 36.0892 -96.0161 60° Northeast 489 563 36,700 1,680 Climbing Kansas City Center
09:01 36.1575 -95.8694 60° Northeast 491 565 38,300 1,440 Climbing Kansas City Center
09:02 36.2292 -95.7181 60° Northeast 493 567 39,700 1,320 Climbing Kansas City Center
09:03 36.3000 -95.5750 58° Northeast 489 563 41,000 600 Climbing Kansas City Center
09:04 36.3694 -95.4311 59° Northeast 489 563 41,000  Level Kansas City Center
09:05 36.4372 -95.2853 60° Northeast 488 562 41,000  Level Kansas City Center
09:06 36.5214 -95.1133 59° Northeast 487 560 41,000  Level Kansas City Center
09:07 36.5825 -94.9828 60° Northeast 489 563 41,000  Level Kansas City Center
09:08 36.6522 -94.8364 59° Northeast 490 564 41,000  Level Kansas City Center
09:09 36.7203 -94.6903 60° Northeast 488 562 41,000  Level Kansas City Center
09:10 36.7886 -94.5442 60° Northeast 488 562 41,000  Level Kansas City Center
09:11 36.8872 -94.3889 52° Northeast 477 549 41,000  Level Kansas City Center
09:12 36.9908 -94.2881 38° Northeast 472 543 41,000  Level Kansas City Center
09:13 37.0961 -94.1861 38° Northeast 476 548 41,000  Level Kansas City Center
09:14 37.1914 -94.0939 38° Northeast 474 545 41,000  Level Kansas City Center
09:15 37.2947 -93.9922 38° Northeast 471 542 41,000  Level Kansas City Center
09:16 37.3975 -93.8894 38° Northeast 470 541 41,000  Level Kansas City Center
09:17 37.5000 -93.7867 38° Northeast 469 540 41,000  Level Kansas City Center
09:18 37.6247 -93.6631 38° Northeast 472 543 41,000  Level Kansas City Center
09:19 37.7272 -93.5589 39° Northeast 471 542 41,000  Level Kansas City Center
09:20 37.8317 -93.4542 38° Northeast 474 545 41,000  Level Kansas City Center
09:21 37.9369 -93.3475 39° Northeast 479 551 41,000  Level Kansas City Center
09:22 38.0431 -93.2406 38° Northeast 482 555 41,000  Level Kansas City Center
09:23 38.1467 -93.1336 39° Northeast 479 551 41,000  Level Kansas City Center
09:24 38.2539 -93.0261 38° Northeast 483 556 41,000  Level Kansas City Center
09:25 38.3569 -92.9189 39° Northeast 478 550 41,000  Level Kansas City Center
09:26 38.4600 -92.8131 39° Northeast 473 544 41,000  Level Kansas City Center
09:27 38.5625 -92.7053 39° Northeast 472 543 41,000  Level Kansas City Center
09:28 38.6647 -92.6003 39° Northeast 469 540 41,000  Level Kansas City Center
09:29 38.7672 -92.4939 39° Northeast 468 539 41,000  Level Kansas City Center
09:30 38.8697 -92.3861 39° Northeast 470 541 41,000  Level Kansas City Center
09:31 38.9725 -92.2761 40° Northeast 474 545 41,000  Level Kansas City Center
09:32 39.0767 -92.1700 38° Northeast 475 547 41,000  Level Kansas City Center
09:33 39.1653 -92.0394 49° Northeast 490 564 41,000  Level Kansas City Center
09:34 39.2589 -91.8758 54° Northeast 493 567 41,000  Level Kansas City Center
09:35 39.3400 -91.7347 53° Northeast 495 570 41,000  Level Kansas City Center
09:36 39.4236 -91.6025 51° Northeast 488 562 41,000  Level Kansas City Center
09:37 39.5128 -91.4817 46° Northeast 477 549 41,000  Level Kansas City Center
09:39 39.6003 -91.3583 47° Northeast 473 544 41,000  Level Kansas City Center
09:40 39.6919 -91.2292 47° Northeast 471 542 41,000  Level Kansas City Center
09:41 39.7928 -91.0853 48° Northeast 470 541 41,000  Level Kansas City Center
09:42 39.8797 -90.9606 48° Northeast 469 540 41,000 -660 Level Kansas City Center
09:43 39.9675 -90.8356 47° Northeast 469 540 39,700 -1,920 Descending Kansas City Center
09:44 40.0536 -90.7103 48° Northeast 465 535 37,200 -2,640 Descending Kansas City Center
09:45 40.1408 -90.5842 48° Northeast 466 536 34,400 -3,000 Descending Kansas City Center
09:45 40.2111 -90.4839 47° Northeast 470 541 31,900 -1,980 Descending Chicago Center
09:46 40.3006 -90.3536 48° Northeast 478 550 31,000 -480 Descending Chicago Center
09:47 40.3889 -90.2233 48° Northeast 479 551 31,000 -540 Level Chicago Center
09:48 40.4783 -90.0911 48° Northeast 478 550 29,900 -1,800 Descending Chicago Center
09:49 40.5622 -89.9656 49° Northeast 465 535 27,400 -2,700 Descending Chicago Center
09:51 40.6567 -89.8144 50° Northeast 451 519 24,400 -2,100 Descending Chicago Center
09:52 40.7311 -89.6917 51° Northeast 432 497 23,200 -1,560 Descending Chicago Center
09:53 40.8008 -89.5714 53° Northeast 417 480 21,300 -1,980 Descending Chicago Center
09:54 40.8678 -89.4675 50° Northeast 404 465 19,200 -2,100 Descending Chicago Center
09:55 40.9475 -89.3356 51° Northeast 385 443 17,000 -1,080 Descending Chicago Center
09:56 41.0139 -89.2258 51° Northeast 382 440 17,000  Level Chicago Center
09:57 41.0844 -89.1069 52° Northeast 387 445 17,000 -840 Level Chicago Center
09:58 41.1492 -88.9967 52° Northeast 381 438 15,300 -1,860 Descending Chicago Center
09:59 41.2114 -88.8914 52° Northeast 368 423 13,300 -2,040 Descending Chicago Center
10:00 41.2700 -88.7894 53° Northeast 352 405 11,200 -1,560 Descending Chicago Center
10:01 41.3272 -88.6936 51° Northeast 333 383 10,100 -1,260 Descending Chicago Center
10:02 41.3778 -88.6072 52° Northeast 301 346 8,700 -1,380 Descending Chicago Center
10:03 41.4297 -88.5192 52° Northeast 302 348 7,300 -1,260 Descending Chicago Center
10:04 41.4706 -88.4028 65° Northeast 298 343 6,100 -1,080 Descending Chicago Center
10:05 41.4950 -88.2981 73° East 297 342 5,100 -540 Descending Chicago Center
10:06 41.5186 -88.1953 73° East 291 335 5,000 -60 Descending Chicago Center
10:07 41.5433 -88.0942 72° East 286 329 5,000  Level Chicago Center
10:08 41.5647 -88.0025 73° East 266 306 5,000  Level Chicago Center
10:09 41.5853 -87.9142 73° East 254 292 5,000  Level Chicago Center
10:10 41.6067 -87.8253 72° East 252 290 5,000  Level Chicago Center
10:11 41.5947 -87.7414 101° East 241 277 5,000 -360 Level Chicago Center
10:12 41.5764 -87.6650 108° East 225 259 4,300 -900 Descending Chicago Center
10:13 41.5914 -87.5847 76° East 207 238 3,200 -660 Descending Chicago Center
10:14 41.6317 -87.5692 16° North 199 229 3,000 -120 Descending Chicago Center
10:15 41.6703 -87.5936 335° Northwest 171 197 3,000 -60 Level Chicago Center
10:16 41.7000 -87.6333 315° West 156 180 2,900 -480 Descending Chicago TRACON
10:17 41.7333 -87.6833 312° West 142 163 2,100 -780 Descending Chicago TRACON
10:18 41.7500 -87.7000 323° Northwest 115 132 1,500 -720 Descending Chicago TRACON